Terminal Aerodrome Forecast
Issued by NWS

Home | Current Version | Previous Version | Text Only | Print | Product List | Glossary On
Versions: 1 2 3 4 5 6 7 8 9 10 11 12 13 14 15 16 17
000
FTUS46 KLOX 220500
TAFSBP
TAF
KSBP 220534Z 2206/2306 31006KT P6SM SKC
     FM220900 VRB03KT P6SM BKN007
     FM221100 VRB03KT 4SM BR OVC004
     FM221600 VRB03KT P6SM SKC
     FM222200 30012KT P6SM SKC
     FM230300 31006KT P6SM SKC=

USA.gov is the U.S. government's official web portal to all federal, state and local government web resources and services.